createdAt,value
2022-12-04T00:00:45.368Z,100563.25
2022-12-04T00:01:45.374Z,100559.328125
2022-12-04T00:02:45.467Z,100558.61328125
2022-12-04T00:03:45.433Z,100552.8359375
2022-12-04T00:04:45.883Z,100554.7265625
2022-12-04T00:05:45.412Z,100556.62890625
2022-12-04T00:06:45.420Z,100550.08984375
2022-12-04T00:07:45.440Z,100548.42578125
2022-12-04T00:08:45.293Z,100549.625
2022-12-04T00:09:45.629Z,100546.04296875
2022-12-04T00:10:45.271Z,100552.21484375
2022-12-04T00:11:45.263Z,100544.52734375
2022-12-04T00:12:45.715Z,100549.03125
2022-12-04T00:13:45.345Z,100548.1015625
2022-12-04T00:15:23.846Z,100552.125
2022-12-04T00:15:45.280Z,100543.34765625
2022-12-04T00:16:45.550Z,100550.4375
2022-12-04T00:17:45.282Z,100551.3828125
2022-12-04T00:18:45.303Z,100552.41796875
2022-12-04T00:19:45.637Z,100545.39453125
2022-12-04T00:20:48.296Z,100553.1171875
2022-12-04T00:21:45.455Z,100551.30859375
2022-12-04T00:22:45.371Z,100554.26953125
2022-12-04T00:23:45.373Z,100558.74609375
2022-12-04T00:24:45.883Z,100560.09375
2022-12-04T00:25:47.718Z,100561.75390625
2022-12-04T00:26:45.360Z,100562.40234375
2022-12-04T00:27:45.708Z,100559.78515625
2022-12-04T00:28:45.493Z,100560.77734375
2022-12-04T00:29:45.764Z,100562.078125
2022-12-04T00:30:45.361Z,100567.8515625
2022-12-04T00:31:48.381Z,100566.51171875
2022-12-04T00:32:45.379Z,100565.546875
2022-12-04T00:33:45.357Z,100570.1015625
2022-12-04T00:34:45.706Z,100568.59375
2022-12-04T00:35:45.338Z,100570.7421875
2022-12-04T00:36:45.271Z,100571.39453125
2022-12-04T00:37:45.443Z,100569.42578125
2022-12-04T00:38:45.289Z,100573.265625
2022-12-04T00:39:45.710Z,100573.46875
2022-12-04T00:40:45.384Z,100573.81640625
2022-12-04T00:41:45.377Z,100570.67578125
2022-12-04T00:42:48.686Z,100569.53515625
2022-12-04T00:43:45.377Z,100566.16796875
2022-12-04T00:44:45.800Z,100560.6015625
2022-12-04T00:45:45.440Z,100561.21875
2022-12-04T00:46:45.282Z,100558.7890625
2022-12-04T00:47:45.471Z,100558.90234375
2022-12-04T00:48:48.389Z,100560.23828125
2022-12-04T00:49:45.712Z,100559.73828125
2022-12-04T00:50:45.365Z,100555.734375
2022-12-04T00:51:45.281Z,100555.046875
2022-12-04T00:52:45.299Z,100555.3671875
2022-12-04T00:53:45.429Z,100554.62890625
2022-12-04T00:54:45.648Z,100554.5390625
2022-12-04T00:55:45.400Z,100559.8828125
2022-12-04T00:56:45.456Z,100562.53125
2022-12-04T00:57:45.768Z,100568.01953125
2022-12-04T00:58:45.502Z,100571.62109375
2022-12-04T00:59:51.327Z,100570.8125
2022-12-04T01:00:45.397Z,100571.6875
2022-12-04T01:01:45.442Z,100568.0625
2022-12-04T01:02:45.345Z,100563.0234375
2022-12-04T01:03:45.397Z,100563.6640625
2022-12-04T01:04:45.694Z,100564.5
2022-12-04T01:05:45.368Z,100561.15234375
2022-12-04T01:06:45.286Z,100556.6796875
2022-12-04T01:07:45.385Z,100558.55859375
2022-12-04T01:08:45.411Z,100556.03515625
2022-12-04T01:09:45.721Z,100560.5234375
2022-12-04T01:10:45.442Z,100563.046875
2022-12-04T01:11:45.264Z,100565.65234375
2022-12-04T01:12:45.714Z,100559.0234375
2022-12-04T01:13:45.334Z,100553.8046875
2022-12-04T01:14:45.756Z,100551.01953125
2022-12-04T01:15:45.441Z,100544.48046875
2022-12-04T01:16:45.465Z,100537.29296875
2022-12-04T01:17:45.303Z,100529.87890625
2022-12-04T01:18:45.268Z,100529.31640625
2022-12-04T01:19:45.746Z,100531.6015625
2022-12-04T01:20:48.280Z,100526.84765625
2022-12-04T01:21:45.384Z,100522.51953125
2022-12-04T01:22:45.401Z,100526.2109375
2022-12-04T01:23:45.436Z,100525.42578125
2022-12-04T01:24:45.888Z,100529.7734375
2022-12-04T01:25:45.331Z,100526.05859375
2022-12-04T01:26:45.283Z,100527.90625
2022-12-04T01:27:45.711Z,100523.90625
2022-12-04T01:28:45.344Z,100522.16015625
2022-12-04T01:29:45.712Z,100525.69921875
2022-12-04T01:30:45.342Z,100525.73046875
2022-12-04T01:31:48.316Z,100525.8046875
2022-12-04T01:32:45.318Z,100528.00390625
2022-12-04T01:33:45.286Z,100530.45703125
2022-12-04T01:34:45.763Z,100529.16015625
2022-12-04T01:35:45.352Z,100529.36328125
2022-12-04T01:36:45.374Z,100526.87890625
2022-12-04T01:37:45.396Z,100524.015625
2022-12-04T01:38:45.279Z,100520.63671875
2022-12-04T01:39:45.702Z,100521.33203125
2022-12-04T01:40:45.386Z,100523.52734375
2022-12-04T01:41:45.259Z,100513.65234375
2022-12-04T01:42:48.668Z,100514.421875
2022-12-04T01:43:45.369Z,100512.31640625
2022-12-04T01:44:45.801Z,100514.0390625
2022-12-04T01:45:45.528Z,100518.87890625
2022-12-04T01:46:45.258Z,100518.65234375
2022-12-04T01:47:45.344Z,100518.35546875
2022-12-04T01:48:45.420Z,100519.23046875
2022-12-04T01:49:45.647Z,100518.51171875
2022-12-04T01:50:45.370Z,100520.24609375
2022-12-04T01:51:45.280Z,100522.65234375
2022-12-04T01:52:45.455Z,100531.30859375
2022-12-04T01:53:48.296Z,100532.97265625
2022-12-04T01:54:45.640Z,100533.4765625
2022-12-04T01:55:45.353Z,100534.9765625
2022-12-04T01:56:45.374Z,100530.50390625
2022-12-04T01:57:45.742Z,100527.59375
2022-12-04T01:58:45.456Z,100529.11328125
2022-12-04T01:59:51.353Z,100531.30859375
2022-12-04T02:00:48.525Z,100531.9140625
2022-12-04T02:01:45.325Z,100530.390625
2022-12-04T02:02:45.388Z,100532.828125
2022-12-04T02:03:45.427Z,100532.23046875
2022-12-04T02:04:45.750Z,100526.19921875
2022-12-04T02:05:45.377Z,100530.1953125
2022-12-04T02:06:45.389Z,100528.74609375
2022-12-04T02:07:45.354Z,100521.0234375
2022-12-04T02:08:45.290Z,100519.6640625
2022-12-04T02:09:45.713Z,100523.05859375
2022-12-04T02:10:45.359Z,100526.56640625
2022-12-04T02:11:45.300Z,100533.9375
2022-12-04T02:12:45.711Z,100533.73046875
2022-12-04T02:13:45.373Z,100533.52734375
2022-12-04T02:14:45.635Z,100536.6875
2022-12-04T02:15:45.377Z,100535.79296875
2022-12-04T02:16:45.423Z,100537.73046875
2022-12-04T02:17:45.399Z,100538.140625
2022-12-04T02:18:45.350Z,100543.2109375
2022-12-04T02:19:45.711Z,100547.9140625
2022-12-04T02:20:48.348Z,100541.1015625
2022-12-04T02:21:45.260Z,100545.60546875
2022-12-04T02:22:45.264Z,100543.87890625
2022-12-04T02:23:45.338Z,100548.40234375
2022-12-04T02:24:49.765Z,100549.046875
2022-12-04T02:25:45.354Z,100542.00390625
2022-12-04T02:26:45.308Z,100546.08984375
2022-12-04T02:27:45.710Z,100545.0078125
2022-12-04T02:28:45.472Z,100544.84765625
2022-12-04T02:29:45.791Z,100543.1328125
2022-12-04T02:30:45.616Z,100543.0625
2022-12-04T02:31:45.279Z,100544.2421875
2022-12-04T02:32:45.293Z,100542.07421875
2022-12-04T02:33:45.264Z,100542.02734375
2022-12-04T02:34:45.755Z,100539.32421875
2022-12-04T02:35:45.346Z,100540.15234375
2022-12-04T02:36:48.407Z,100539.58203125
2022-12-04T02:37:45.510Z,100543.9375
2022-12-04T02:38:45.410Z,100541.28515625
2022-12-04T02:39:45.711Z,100544.48046875
2022-12-04T02:40:45.497Z,100548.2578125
2022-12-04T02:41:45.435Z,100549.11328125
2022-12-04T02:42:45.651Z,100547.3828125
2022-12-04T02:43:45.406Z,100550.95703125
2022-12-04T02:44:45.753Z,100548.8046875
2022-12-04T02:45:45.408Z,100543.0234375
2022-12-04T02:46:45.268Z,100543.19140625
2022-12-04T02:47:48.274Z,100539.44921875
2022-12-04T02:48:45.436Z,100544.734375
2022-12-04T02:49:45.756Z,100543.3984375
2022-12-04T02:50:45.376Z,100543.68359375
2022-12-04T02:51:45.409Z,100542.203125
2022-12-04T02:52:45.473Z,100543.5
2022-12-04T02:53:45.384Z,100540.32421875
2022-12-04T02:54:45.737Z,100540.21484375
2022-12-04T02:55:45.479Z,100543.2265625
2022-12-04T02:56:45.430Z,100544.4921875
2022-12-04T02:57:45.709Z,100543.734375
2022-12-04T02:58:48.336Z,100540.42578125
2022-12-04T02:59:45.638Z,100539.16015625
2022-12-04T03:00:45.339Z,100538.30859375
2022-12-04T03:01:45.462Z,100534.24609375
2022-12-04T03:02:45.469Z,100532.92578125
2022-12-04T03:03:45.283Z,100533.3671875
2022-12-04T03:04:45.637Z,100530.64453125
2022-12-04T03:05:45.346Z,100535.625
2022-12-04T03:06:45.280Z,100533.94140625
2022-12-04T03:07:45.479Z,100539.25
2022-12-04T03:08:45.423Z,100537.56640625
2022-12-04T03:09:45.657Z,100535.578125
2022-12-04T03:10:45.379Z,100534.56640625
2022-12-04T03:11:45.246Z,100537.21875
2022-12-04T03:12:45.705Z,100539.8359375
2022-12-04T03:13:45.345Z,100539.94921875
2022-12-04T03:14:51.291Z,100533.9375
2022-12-04T03:15:45.472Z,100533.20703125
2022-12-04T03:16:46.663Z,100524.18359375
2022-12-04T03:17:45.439Z,100521.4609375
2022-12-04T03:18:45.376Z,100520.30078125
2022-12-04T03:19:45.709Z,100517.68359375
2022-12-04T03:20:45.335Z,100521.84765625
2022-12-04T03:21:45.396Z,100522.46875
2022-12-04T03:22:45.266Z,100521.75390625
2022-12-04T03:23:45.382Z,100521.87109375
2022-12-04T03:24:45.704Z,100518.4921875
2022-12-04T03:25:48.388Z,100517.53515625
2022-12-04T03:26:45.475Z,100517.62890625
2022-12-04T03:27:45.640Z,100520.6484375
2022-12-04T03:28:45.284Z,100525.546875
2022-12-04T03:29:45.303Z,100528.18359375
2022-12-04T03:30:45.496Z,100528.8046875
2022-12-04T03:31:45.390Z,100526.90234375
2022-12-04T03:32:45.350Z,100528.14453125
2022-12-04T03:33:45.281Z,100528.3125
2022-12-04T03:34:45.754Z,100527.578125
2022-12-04T03:35:45.381Z,100525.0625
2022-12-04T03:36:48.275Z,100528.5546875
2022-12-04T03:37:45.387Z,100527.6328125
2022-12-04T03:38:45.358Z,100525.78515625
2022-12-04T03:39:45.697Z,100527.62109375
2022-12-04T03:40:45.287Z,100523.13671875
2022-12-04T03:41:49.784Z,100527.95703125
2022-12-04T03:42:45.640Z,100529.52734375
2022-12-04T03:43:45.280Z,100526.91796875
2022-12-04T03:44:45.636Z,100530.77734375
2022-12-04T03:45:45.333Z,100530.6640625
2022-12-04T03:46:45.282Z,100530.19921875
2022-12-04T03:47:48.399Z,100532.4453125
2022-12-04T03:48:45.379Z,100533.34375
2022-12-04T03:49:45.716Z,100532.046875
2022-12-04T03:50:45.459Z,100532.734375
2022-12-04T03:51:45.458Z,100530.6796875
2022-12-04T03:52:45.288Z,100528.04296875
2022-12-04T03:53:45.278Z,100527.48828125
2022-12-04T03:54:45.803Z,100524.69140625
2022-12-04T03:55:45.383Z,100523.5546875
2022-12-04T03:56:45.271Z,100522.2265625
2022-12-04T03:57:45.638Z,100524.6640625
2022-12-04T03:58:48.379Z,100520.671875
2022-12-04T03:59:45.639Z,100513.953125
2022-12-04T04:00:45.423Z,100516.60546875
2022-12-04T04:01:45.531Z,100516.453125
2022-12-04T04:02:45.464Z,100516.984375
2022-12-04T04:03:45.281Z,100509.6171875
2022-12-04T04:04:45.668Z,100515.0625
2022-12-04T04:05:45.394Z,100511.40234375
2022-12-04T04:06:45.462Z,100511.42578125
2022-12-04T04:07:45.400Z,100514.421875
2022-12-04T04:08:45.283Z,100517.296875
2022-12-04T04:09:45.705Z,100519.96484375
2022-12-04T04:10:45.290Z,100520.953125
2022-12-04T04:11:45.365Z,100516.0390625
2022-12-04T04:12:45.641Z,100517.359375
2022-12-04T04:13:45.459Z,100511.41796875
2022-12-04T04:14:51.325Z,100514.19140625
2022-12-04T04:15:45.447Z,100513.1484375
2022-12-04T04:16:45.407Z,100510.28515625
2022-12-04T04:17:45.409Z,100502.38671875
2022-12-04T04:18:45.270Z,100504.796875
2022-12-04T04:19:45.713Z,100508.16796875
2022-12-04T04:20:45.259Z,100504.90625
2022-12-04T04:21:45.277Z,100502.85546875
2022-12-04T04:22:45.289Z,100501.4921875
2022-12-04T04:23:45.381Z,100499.8515625
2022-12-04T04:24:45.636Z,100494.5390625
2022-12-04T04:25:48.280Z,100497.98046875
2022-12-04T04:26:45.348Z,100496.91796875
2022-12-04T04:27:45.705Z,100494.44921875
2022-12-04T04:28:45.388Z,100494.7734375
2022-12-04T04:29:52.103Z,100495.37109375
2022-12-04T04:30:45.399Z,100496.6875
2022-12-04T04:31:45.249Z,100499.99609375
2022-12-04T04:32:45.423Z,100500.5234375
2022-12-04T04:33:45.501Z,100501.28515625
2022-12-04T04:34:45.705Z,100505.9921875
2022-12-04T04:35:45.259Z,100508.51171875
2022-12-04T04:36:48.275Z,100505.390625
2022-12-04T04:37:45.481Z,100505.71875
2022-12-04T04:38:45.363Z,100508.36328125
2022-12-04T04:39:45.710Z,100506.984375
2022-12-04T04:40:45.346Z,100503.73046875
2022-12-04T04:41:45.344Z,100503.4296875
2022-12-04T04:42:51.280Z,100502.140625
2022-12-04T04:43:45.432Z,100500.95703125
2022-12-04T04:44:45.741Z,100504.0546875
2022-12-04T04:45:45.488Z,100501.953125
2022-12-04T04:46:45.549Z,100504.26171875
2022-12-04T04:47:45.262Z,100506.69140625
2022-12-04T04:48:45.269Z,100503.015625
2022-12-04T04:49:45.710Z,100506.1328125
2022-12-04T04:50:45.374Z,100506.5078125
2022-12-04T04:51:45.270Z,100510.5
2022-12-04T04:52:45.399Z,100511.54296875
2022-12-04T04:53:48.262Z,100507.23828125
2022-12-04T04:54:45.631Z,100513.61328125
2022-12-04T04:55:45.405Z,100509.38671875
2022-12-04T04:56:45.512Z,100511.765625
2022-12-04T04:57:45.433Z,100508.6484375
2022-12-04T04:58:45.408Z,100510.8203125
2022-12-04T04:59:45.691Z,100516.68359375
2022-12-04T05:00:45.283Z,100513.8203125
2022-12-04T05:01:45.449Z,100510.89453125
2022-12-04T05:02:45.458Z,100512.38671875
2022-12-04T05:03:45.492Z,100512.37890625
2022-12-04T05:04:51.360Z,100509.21875
2022-12-04T05:05:45.340Z,100515.80078125
2022-12-04T05:06:45.395Z,100513.765625
2022-12-04T05:07:45.532Z,100512.35546875
2022-12-04T05:08:45.420Z,100513.80078125
2022-12-04T05:09:45.641Z,100512.66015625
2022-12-04T05:10:45.297Z,100513.76953125
2022-12-04T05:11:45.269Z,100508.22265625
2022-12-04T05:12:45.713Z,100510.62109375
2022-12-04T05:13:45.477Z,100511.9921875
2022-12-04T05:14:45.642Z,100512.4765625
2022-12-04T05:15:48.300Z,100511.6484375
2022-12-04T05:16:45.398Z,100510.7421875
2022-12-04T05:17:45.376Z,100508.5703125
2022-12-04T05:18:45.483Z,100507.51171875
2022-12-04T05:19:45.716Z,100509.66015625
2022-12-04T05:20:45.488Z,100504.671875
2022-12-04T05:21:45.382Z,100502.296875
2022-12-04T05:22:45.273Z,100501.96484375
2022-12-04T05:23:45.378Z,100496.26953125
2022-12-04T05:24:45.377Z,100494.72265625
2022-12-04T05:25:45.284Z,100493.828125
2022-12-04T05:26:45.266Z,100491.5859375
2022-12-04T05:27:45.461Z,100490.33984375
2022-12-04T05:28:45.404Z,100487.8671875
2022-12-04T05:29:45.680Z,100489.5546875
2022-12-04T05:30:45.347Z,100489.53125
2022-12-04T05:31:48.503Z,100489.7890625
2022-12-04T05:32:45.340Z,100496.0390625
2022-12-04T05:33:45.267Z,100494.3515625
2022-12-04T05:34:45.713Z,100495.08984375
2022-12-04T05:35:45.356Z,100499.1953125
2022-12-04T05:36:45.287Z,100499.265625
2022-12-04T05:37:48.275Z,100500.76171875
2022-12-04T05:38:45.356Z,100498.81640625
2022-12-04T05:39:45.768Z,100499.96875
2022-12-04T05:40:45.460Z,100498.9296875
2022-12-04T05:41:45.361Z,100498.90625
2022-12-04T05:42:45.632Z,100498.26171875
2022-12-04T05:43:45.383Z,100498.00390625
2022-12-04T05:44:45.706Z,100498.38671875
2022-12-04T05:45:45.384Z,100502.16796875
2022-12-04T05:46:45.394Z,100500.75390625
2022-12-04T05:47:45.278Z,100501.50390625
2022-12-04T05:48:48.297Z,100509.1640625
2022-12-04T05:49:45.647Z,100509.2734375
2022-12-04T05:50:45.385Z,100511.59375
2022-12-04T05:51:45.357Z,100509.703125
2022-12-04T05:52:45.276Z,100509.5546875
2022-12-04T05:53:45.448Z,100509.23046875
2022-12-04T05:54:45.644Z,100508.31640625
2022-12-04T05:55:45.264Z,100505.4296875
2022-12-04T05:56:45.430Z,100508.8671875
2022-12-04T05:57:45.649Z,100512.44921875
2022-12-04T05:58:45.477Z,100513.25390625
2022-12-04T05:59:45.629Z,100513.4765625
2022-12-04T06:00:45.277Z,100516.58203125
2022-12-04T06:01:45.426Z,100520.75390625
2022-12-04T06:02:45.480Z,100512.62109375
2022-12-04T06:03:45.363Z,100512.35546875
2022-12-04T06:04:51.284Z,100518.2421875
2022-12-04T06:05:45.378Z,100515.703125
2022-12-04T06:06:45.357Z,100518.66796875
2022-12-04T06:07:45.570Z,100513.9140625
2022-12-04T06:08:45.265Z,100514.67578125
2022-12-04T06:09:45.642Z,100516.58984375
2022-12-04T06:10:45.266Z,100514.0078125
2022-12-04T06:11:45.375Z,100514.43359375
2022-12-04T06:12:45.715Z,100520.52734375
2022-12-04T06:13:45.459Z,100520.05078125
2022-12-04T06:14:45.714Z,100522.53125
2022-12-04T06:15:48.301Z,100523.33984375
2022-12-04T06:16:45.604Z,100524.11328125
2022-12-04T06:17:45.462Z,100523.68359375
2022-12-04T06:18:45.507Z,100531.23828125
2022-12-04T06:19:45.840Z,100528.16015625
2022-12-04T06:20:45.455Z,100532.01171875
2022-12-04T06:21:45.281Z,100529.015625
2022-12-04T06:22:45.276Z,100527.6875
2022-12-04T06:23:45.430Z,100524.94140625
2022-12-04T06:24:45.648Z,100522.1953125
2022-12-04T06:25:45.359Z,100526.50390625
2022-12-04T06:27:25.132Z,100524.609375
2022-12-04T06:27:45.633Z,100530.25390625
2022-12-04T06:28:45.413Z,100531.34765625
2022-12-04T06:29:45.644Z,100533.2421875
2022-12-04T06:30:45.366Z,100532.546875
2022-12-04T06:31:45.467Z,100527.65625
2022-12-04T06:32:45.357Z,100528.32421875
2022-12-04T06:33:45.372Z,100525.15234375
2022-12-04T06:34:45.711Z,100522.12890625
2022-12-04T06:35:45.452Z,100531.140625
2022-12-04T06:36:45.390Z,100524.828125
2022-12-04T06:37:48.267Z,100526.26171875
2022-12-04T06:38:45.455Z,100527.4765625
2022-12-04T06:39:45.629Z,100522.05859375
2022-12-04T06:40:45.372Z,100524.82421875
2022-12-04T06:41:45.258Z,100520.7890625
2022-12-04T06:42:45.714Z,100523.98828125
2022-12-04T06:43:45.390Z,100523.91796875
2022-12-04T06:44:45.639Z,100519.05859375
2022-12-04T06:45:45.578Z,100520.640625
2022-12-04T06:46:47.173Z,100516.2578125
2022-12-04T06:47:45.375Z,100517.3984375
2022-12-04T06:48:48.449Z,100516.46484375
2022-12-04T06:49:45.682Z,100522.0234375
2022-12-04T06:50:45.373Z,100520.77734375
2022-12-04T06:51:45.289Z,100518.21875
2022-12-04T06:52:45.401Z,100522.61328125
2022-12-04T06:53:45.421Z,100518.03125
2022-12-04T06:54:45.642Z,100519.671875
2022-12-04T06:55:45.318Z,100516.60546875
2022-12-04T06:56:45.375Z,100516.48828125
2022-12-04T06:57:45.684Z,100518.16015625
2022-12-04T06:58:45.472Z,100521.703125
2022-12-04T06:59:51.322Z,100522.73046875
2022-12-04T07:00:45.527Z,100517.5625
2022-12-04T07:01:45.283Z,100519.9140625
2022-12-04T07:02:45.408Z,100518.609375
2022-12-04T07:03:51.052Z,100515.6171875
2022-12-04T07:04:45.715Z,100516.01171875
2022-12-04T07:05:45.277Z,100515.7109375
2022-12-04T07:06:45.278Z,100519.65625
2022-12-04T07:07:45.471Z,100522.61328125
2022-12-04T07:08:45.476Z,100521.25
2022-12-04T07:09:45.470Z,100515.37109375
2022-12-04T07:10:48.279Z,100517.98046875
2022-12-04T07:11:45.382Z,100516.078125
2022-12-04T07:12:45.706Z,100515.6171875
2022-12-04T07:13:45.488Z,100513.57421875
2022-12-04T07:14:45.639Z,100512.8984375
2022-12-04T07:15:45.468Z,100507.34375
2022-12-04T07:16:45.485Z,100508.9140625
2022-12-04T07:17:45.382Z,100505.19921875
2022-12-04T07:18:45.389Z,100512.46484375
2022-12-04T07:19:45.716Z,100511.1953125
2022-12-04T07:20:45.468Z,100511.1953125
2022-12-04T07:21:48.407Z,100515.06640625
2022-12-04T07:22:45.365Z,100511.79296875
2022-12-04T07:23:45.391Z,100513.234375
2022-12-04T07:24:45.636Z,100511.98828125
2022-12-04T07:25:45.347Z,100511.734375
2022-12-04T07:26:45.283Z,100510.9375
2022-12-04T07:27:45.647Z,100505.89453125
2022-12-04T07:28:45.285Z,100508.765625
2022-12-04T07:29:45.711Z,100509.0859375
2022-12-04T07:30:45.455Z,100508.4609375
2022-12-04T07:31:45.533Z,100505.1171875
2022-12-04T07:32:48.413Z,100506.953125
2022-12-04T07:33:45.364Z,100505.2578125
2022-12-04T07:34:45.402Z,100502.9921875
2022-12-04T07:35:45.486Z,100504.30859375
2022-12-04T07:36:45.324Z,100512.35546875
2022-12-04T07:37:45.408Z,100510.9609375
2022-12-04T07:38:45.405Z,100508.6875
2022-12-04T07:39:45.763Z,100510.53515625
2022-12-04T07:40:47.981Z,100506.7734375
2022-12-04T07:41:45.442Z,100508.72265625
2022-12-04T07:42:45.773Z,100503.4453125
2022-12-04T07:43:48.273Z,100502.03125
2022-12-04T07:44:45.381Z,100503.484375
2022-12-04T07:45:45.327Z,100500.87890625
2022-12-04T07:46:45.274Z,100503.57421875
2022-12-04T07:47:45.404Z,100503.828125
2022-12-04T07:48:45.524Z,100504.546875
2022-12-04T07:49:45.435Z,100508.29296875
2022-12-04T07:50:45.278Z,100506.89453125
2022-12-04T07:51:45.383Z,100505.953125
2022-12-04T07:52:45.357Z,100507.39453125
2022-12-04T07:53:45.285Z,100507.52734375
2022-12-04T07:54:48.400Z,100506.60546875
2022-12-04T07:55:45.454Z,100507.87890625
2022-12-04T07:56:45.498Z,100509.62890625
2022-12-04T07:57:45.509Z,100511.87109375
2022-12-04T07:58:45.446Z,100509.9765625
2022-12-04T07:59:45.409Z,100512.4609375
2022-12-04T08:00:45.397Z,100511.21875
2022-12-04T08:01:45.345Z,100509.265625
2022-12-04T08:02:45.343Z,100512.51953125
2022-12-04T08:03:48.076Z,100514.48828125
2022-12-04T08:04:45.318Z,100516.796875
2022-12-04T08:05:48.365Z,100522.3359375
2022-12-04T08:06:45.347Z,100517.19140625
2022-12-04T08:07:45.315Z,100521.28515625
2022-12-04T08:08:45.508Z,100522.71875
2022-12-04T08:09:45.468Z,100522.109375
2022-12-04T08:10:45.412Z,100527.2109375
2022-12-04T08:11:47.403Z,100526.86328125
2022-12-04T08:12:45.644Z,100521.2109375
2022-12-04T08:13:45.366Z,100524.765625
2022-12-04T08:14:45.705Z,100528.484375
2022-12-04T08:15:45.294Z,100529.9140625
2022-12-04T08:16:52.499Z,100534.71875
2022-12-04T08:17:45.372Z,100533.72265625
2022-12-04T08:18:45.376Z,100532.19921875
2022-12-04T08:19:45.307Z,100537.5625
2022-12-04T08:20:45.380Z,100535.140625
2022-12-04T08:21:45.396Z,100536.5703125
2022-12-04T08:22:48.322Z,100543.78125
2022-12-04T08:23:45.436Z,100542.27734375
2022-12-04T08:24:45.640Z,100541.12890625
2022-12-04T08:25:45.275Z,100541.453125
2022-12-04T08:26:45.268Z,100538.140625
2022-12-04T08:27:47.537Z,100537.4765625
2022-12-04T08:28:45.409Z,100540.578125
2022-12-04T08:29:45.709Z,100538.10546875
2022-12-04T08:30:45.509Z,100537.84375
2022-12-04T08:31:45.396Z,100539.99609375
2022-12-04T08:32:45.475Z,100536.6953125
2022-12-04T08:33:45.375Z,100533.7578125
2022-12-04T08:34:48.748Z,100532.828125
2022-12-04T08:35:45.484Z,100531.79296875
2022-12-04T08:36:45.407Z,100533.98828125
2022-12-04T08:37:45.369Z,100525.921875
2022-12-04T08:38:48.322Z,100527.26953125
2022-12-04T08:39:45.633Z,100526.0859375
2022-12-04T08:40:45.254Z,100528.1640625
2022-12-04T08:41:45.251Z,100523.23828125
2022-12-04T08:42:47.315Z,100521.99609375
2022-12-04T08:43:45.337Z,100519.0546875
2022-12-04T08:44:45.639Z,100521.83984375
2022-12-04T08:45:45.283Z,100517.1015625
2022-12-04T08:46:45.421Z,100521.1171875
2022-12-04T08:47:50.684Z,100523.10546875
2022-12-04T08:48:45.397Z,100519.62109375
2022-12-04T08:49:51.320Z,100513.5234375
2022-12-04T08:50:45.442Z,100518.52734375
2022-12-04T08:51:45.271Z,100518.13671875
2022-12-04T08:52:45.403Z,100516.89453125
2022-12-04T08:53:45.263Z,100523.24609375
2022-12-04T08:54:45.762Z,100522.11328125
2022-12-04T08:55:45.387Z,100518.51171875
2022-12-04T08:56:45.282Z,100518.53515625
2022-12-04T08:57:45.645Z,100523.890625
2022-12-04T08:58:45.456Z,100520.58984375
2022-12-04T08:59:45.642Z,100521.9765625
2022-12-04T09:00:48.288Z,100518.00390625
2022-12-04T09:01:45.558Z,100516.80859375
2022-12-04T09:02:45.414Z,100517.3359375
2022-12-04T09:03:45.289Z,100518.2109375
2022-12-04T09:04:45.761Z,100517.515625
2022-12-04T09:05:45.375Z,100508.94921875
2022-12-04T09:06:48.406Z,100506.29296875
2022-12-04T09:07:45.423Z,100501.12109375
2022-12-04T09:08:45.402Z,100498.125
2022-12-04T09:09:48.340Z,100499.76171875
2022-12-04T09:10:45.372Z,100506.30078125
2022-12-04T09:11:45.345Z,100498.46875
2022-12-04T09:12:45.648Z,100497.0078125
2022-12-04T09:13:45.393Z,100495.71875
2022-12-04T09:14:45.720Z,100496.77734375
2022-12-04T09:15:45.535Z,100506.921875
2022-12-04T09:16:45.447Z,100501.72265625
2022-12-04T09:17:48.251Z,100504.515625
2022-12-04T09:18:45.337Z,100505.9921875
2022-12-04T09:19:45.718Z,100509.04296875
2022-12-04T09:20:45.421Z,100506.5234375
2022-12-04T09:21:45.382Z,100507.46484375
2022-12-04T09:23:02.941Z,100508.23046875
2022-12-04T09:23:45.430Z,100512.2421875
2022-12-04T09:24:45.651Z,100515.9296875
2022-12-04T09:25:45.260Z,100516.31640625
2022-12-04T09:26:45.284Z,100517.01171875
2022-12-04T09:27:45.720Z,100517.5703125
2022-12-04T09:28:48.415Z,100517.68359375
2022-12-04T09:29:45.746Z,100518.87109375
2022-12-04T09:30:45.571Z,100510.94140625
2022-12-04T09:31:45.427Z,100512.8515625
2022-12-04T09:32:45.380Z,100509.62109375
2022-12-04T09:33:45.377Z,100513.1796875
2022-12-04T09:34:49.628Z,100513.42578125
2022-12-04T09:35:45.415Z,100509.59375
2022-12-04T09:36:45.343Z,100509.03515625
2022-12-04T09:37:45.438Z,100507.9375
2022-12-04T09:38:45.361Z,100504.32421875
2022-12-04T09:39:51.341Z,100501.84765625
2022-12-04T09:40:45.342Z,100499.8046875
2022-12-04T09:41:45.254Z,100496.9765625
2022-12-04T09:42:45.722Z,100496.94921875
2022-12-04T09:43:45.384Z,100500.078125
2022-12-04T09:44:45.718Z,100500.80859375
2022-12-04T09:45:45.281Z,100500.3046875
2022-12-04T09:46:45.448Z,100502.3125
2022-12-04T09:47:45.499Z,100503.4375
2022-12-04T09:48:45.367Z,100497.375
2022-12-04T09:49:45.721Z,100498.71875
2022-12-04T09:50:48.279Z,100494.96875
2022-12-04T09:51:45.335Z,100494.546875
2022-12-04T09:52:45.475Z,100491.4453125
2022-12-04T09:53:45.368Z,100490.375
2022-12-04T09:54:45.725Z,100493
2022-12-04T09:55:45.285Z,100494.8984375
2022-12-04T09:56:45.279Z,100495.55078125
2022-12-04T09:57:45.400Z,100494.21484375
2022-12-04T09:58:45.358Z,100493.1171875